Pagina principale
METAR-TAF:

METAR-TAF

Aeroporti :

Aeroporto di Latina

Latina, Italia

latitudine: 41-33N, longitudine: 012-54E, altezza: 25 m

Osservazione

Il bollettino è stato emesso 2 ore e 34 minuti fa, alle 17:55 UTC
Temperature 21°C
Umidità 78%
Pressione 1018 hPa
Visibilità 10 km o più
Nubi sparse ad un'altezza di 8000 ft

METAR: LIRL 241755Z /////KT 9999 SCT080 21/17 Q1018 RMK OVC BKN120 MON LIB NC VIS MIN 9999 WIND THR12 /////KT WIND THR30 28005KT BLU

Ora: 22:29 (20:29 UTC)

Previsione

Il bollettino è stato emesso 6 ore e 29 minuti fa, alle 14:00 UTC
Previsione valida dal 24 alle 15 UTC al 24 alle 24 UTC
Vento 5 kt da ovest/sud-ovest
Visibilità 10 km o più
Poco nuvoloso ad un'altezza di 2000 ft

TAF: LIRL 241400Z 2415/2424 25005KT 9999 FEW020

Osservazioni e previsioni meteorologiche di più di 4000 aeroporti (messaggi METAR e TAF).

Le stazioni disponibili sono rappresentate dai dischi gialli e rossi sulla carta.

Puntare il mouse per vedere il nome della stazione.

Clicca sopra per visualizzare le osservazioni e previsioni meteorologiche.

Per cambiare la mappa : fare clic sui pulsanti verdi con una croce nera per ingrandire, il pulsante verde con un trattino per diminuire, o sulla freccia verde per le mappe adiacenti.


METAR-TAF: